createdAt,value
2017-10-25T00:01:57.928Z,19.00
2017-10-25T00:06:59.885Z,18.88
2017-10-25T00:12:01.801Z,18.97
2017-10-25T00:17:03.823Z,18.74
2017-10-25T00:22:05.748Z,18.82
2017-10-25T00:27:07.695Z,18.87
2017-10-25T00:32:09.651Z,18.77
2017-10-25T00:37:11.649Z,18.81
2017-10-25T00:42:13.554Z,18.76
2017-10-25T00:47:15.499Z,18.77
2017-10-25T00:52:17.482Z,18.87
2017-10-25T00:57:19.516Z,18.90
2017-10-25T01:02:21.495Z,18.91
2017-10-25T01:07:25.088Z,19.02
2017-10-25T01:12:27.927Z,19.02
2017-10-25T01:17:29.973Z,18.98
2017-10-25T01:22:31.955Z,19.04
2017-10-25T01:27:33.956Z,19.12
2017-10-25T01:32:35.919Z,19.05
2017-10-25T01:37:37.924Z,18.96
2017-10-25T01:42:39.942Z,18.97
2017-10-25T01:47:41.964Z,18.93
2017-10-25T01:52:43.980Z,18.95
2017-10-25T01:57:45.967Z,18.92
2017-10-25T02:02:47.986Z,18.85
2017-10-25T02:07:49.901Z,18.84
2017-10-25T02:12:51.859Z,18.86
2017-10-25T02:17:53.789Z,18.95
2017-10-25T02:22:55.718Z,18.94
2017-10-25T02:27:57.640Z,18.97
2017-10-25T02:33:00.310Z,18.97
2017-10-25T02:38:02.233Z,18.90
2017-10-25T02:43:04.151Z,18.98
2017-10-25T02:48:06.169Z,19.08
2017-10-25T02:53:08.839Z,18.99
2017-10-25T02:58:10.779Z,18.87
2017-10-25T03:03:12.717Z,18.98
2017-10-25T03:08:14.645Z,19.11
2017-10-25T03:13:16.612Z,19.15
2017-10-25T03:18:19.319Z,19.04
2017-10-25T03:23:22.059Z,18.96
2017-10-25T03:28:24.729Z,18.83
2017-10-25T03:33:26.636Z,18.73
2017-10-25T03:38:28.598Z,18.80
2017-10-25T03:43:30.543Z,18.75
2017-10-25T03:48:32.449Z,18.73
2017-10-25T03:53:34.396Z,18.59
2017-10-25T03:58:37.063Z,18.69
2017-10-25T04:03:38.996Z,18.75
2017-10-25T04:08:41.013Z,18.74
2017-10-25T04:13:43.702Z,18.65
2017-10-25T04:18:46.446Z,18.74
2017-10-25T04:23:49.210Z,18.76
2017-10-25T04:28:51.915Z,18.62
2017-10-25T04:33:55.350Z,18.59
2017-10-25T04:38:58.771Z,18.55
2017-10-25T04:44:01.287Z,18.58
2017-10-25T04:49:03.761Z,18.50
2017-10-25T04:54:05.923Z,18.53
2017-10-25T04:59:08.975Z,18.65
2017-10-25T05:04:11.025Z,18.77
2017-10-25T05:09:13.103Z,18.83
2017-10-25T05:14:15.036Z,18.87
2017-10-25T05:19:17.146Z,19.02
2017-10-25T05:24:19.163Z,18.93
2017-10-25T05:29:21.204Z,18.73
2017-10-25T05:34:23.921Z,18.80
2017-10-25T05:39:27.144Z,18.80
2017-10-25T05:44:29.928Z,18.88
2017-10-25T05:49:32.041Z,18.85
2017-10-25T05:54:34.137Z,18.79
2017-10-25T05:59:36.147Z,18.85
2017-10-25T06:04:38.112Z,18.76
2017-10-25T06:09:40.034Z,18.69
2017-10-25T06:14:41.991Z,18.64
2017-10-25T06:19:43.940Z,18.71
2017-10-25T06:24:45.859Z,18.86
2017-10-25T06:29:47.777Z,18.82
2017-10-25T06:34:49.738Z,18.93
2017-10-25T06:39:51.682Z,18.87
2017-10-25T06:44:53.693Z,19.02
2017-10-25T06:49:55.728Z,18.92
2017-10-25T06:54:58.372Z,18.94
2017-10-25T07:00:00.345Z,18.92
2017-10-25T07:05:02.315Z,19.22
2017-10-25T07:10:04.256Z,19.09
2017-10-25T07:15:06.165Z,19.08
2017-10-25T07:20:08.843Z,19.13
2017-10-25T07:25:10.767Z,19.26
2017-10-25T07:30:12.711Z,19.25
2017-10-25T07:35:14.647Z,19.19
2017-10-25T07:40:16.584Z,19.07
2017-10-25T07:45:18.526Z,19.09
2017-10-25T07:50:20.545Z,18.93
2017-10-25T07:55:22.467Z,19.06
2017-10-25T08:00:24.363Z,19.08
2017-10-25T08:05:27.123Z,18.82
2017-10-25T08:10:29.080Z,18.75
2017-10-25T08:15:31.073Z,18.88
2017-10-25T08:20:33.028Z,18.87
2017-10-25T08:25:34.948Z,18.88
2017-10-25T08:30:37.605Z,19.01
2017-10-25T08:35:39.510Z,19.16
2017-10-25T08:40:41.447Z,19.33
2017-10-25T08:45:43.549Z,19.59
2017-10-25T08:50:46.113Z,19.44
2017-10-25T08:55:48.116Z,19.52
2017-10-25T09:00:50.885Z,19.74
2017-10-25T09:05:52.846Z,19.65
2017-10-25T09:10:54.842Z,19.48
2017-10-25T09:15:57.741Z,19.39
2017-10-25T09:20:59.656Z,19.48
2017-10-25T09:26:01.612Z,19.55
2017-10-25T09:31:03.719Z,19.78
2017-10-25T09:36:06.311Z,19.81
2017-10-25T09:41:08.319Z,20.02
2017-10-25T09:46:11.080Z,20.09
2017-10-25T09:51:13.199Z,20.11
2017-10-25T09:56:15.581Z,20.19
2017-10-25T10:01:17.815Z,20.38
2017-10-25T10:06:19.752Z,20.58
2017-10-25T10:11:21.706Z,20.88
2017-10-25T10:16:23.698Z,21.08
2017-10-25T10:21:25.745Z,21.06
2017-10-25T10:26:27.687Z,20.82
2017-10-25T10:31:29.667Z,20.49
2017-10-25T10:36:32.391Z,20.23
2017-10-25T10:41:34.466Z,20.10
2017-10-25T10:46:36.459Z,20.06
2017-10-25T10:51:38.368Z,20.08
2017-10-25T10:56:40.744Z,19.93
2017-10-25T11:01:42.799Z,19.93
2017-10-25T11:06:44.758Z,19.90
2017-10-25T11:11:47.445Z,19.86
2017-10-25T11:16:49.563Z,19.87
2017-10-25T11:21:51.659Z,20.28
2017-10-25T11:26:53.807Z,20.48
2017-10-25T11:31:56.037Z,20.63
2017-10-25T11:36:58.311Z,20.23
2017-10-25T11:42:00.294Z,19.83
2017-10-25T11:47:02.321Z,19.80
2017-10-25T11:52:04.974Z,19.70
2017-10-25T11:57:06.923Z,19.70
2017-10-25T12:02:08.903Z,19.59
2017-10-25T12:07:10.849Z,19.51
2017-10-25T12:12:12.766Z,19.31
2017-10-25T12:17:15.441Z,18.95
2017-10-25T12:22:17.396Z,18.68
2017-10-25T12:27:20.059Z,18.78
2017-10-25T12:32:22.796Z,18.83
2017-10-25T12:37:24.686Z,18.99
2017-10-25T12:42:27.097Z,19.12
2017-10-25T12:47:29.058Z,19.12
2017-10-25T12:52:31.798Z,18.94
2017-10-25T12:57:35.339Z,18.84
2017-10-25T13:02:38.548Z,18.66
2017-10-25T13:07:40.548Z,18.57
2017-10-25T13:12:46.821Z,18.39
2017-10-25T13:17:51.733Z,18.30
2017-10-25T13:22:54.390Z,18.30
2017-10-25T13:27:57.149Z,18.43
2017-10-25T13:32:59.967Z,18.59
2017-10-25T13:38:02.509Z,18.64
2017-10-25T13:43:05.159Z,18.67
2017-10-25T13:48:07.239Z,18.42
2017-10-25T13:53:09.867Z,18.18
2017-10-25T13:58:11.933Z,18.12
2017-10-25T14:03:14.386Z,18.19
2017-10-25T14:08:16.393Z,18.04
2017-10-25T14:13:18.440Z,17.91
2017-10-25T14:18:20.377Z,17.80
2017-10-25T14:23:22.327Z,17.79
2017-10-25T14:28:43.449Z,17.77
2017-10-25T14:33:45.408Z,17.73
2017-10-25T14:38:47.719Z,17.70
2017-10-25T14:43:49.732Z,17.72
2017-10-25T14:48:51.775Z,17.77
2017-10-25T14:53:53.701Z,17.89
2017-10-25T14:58:56.345Z,18.04
2017-10-25T15:03:58.347Z,18.04
2017-10-25T15:09:00.299Z,18.10
2017-10-25T15:14:02.280Z,18.10
2017-10-25T15:19:04.311Z,18.07
2017-10-25T15:24:06.392Z,18.09
2017-10-25T15:29:08.376Z,18.14
2017-10-25T15:34:10.334Z,17.92
2017-10-25T15:39:12.275Z,17.76
2017-10-25T15:44:14.218Z,17.70
2017-10-25T15:49:16.212Z,17.55
2017-10-25T15:54:18.164Z,17.53
2017-10-25T15:59:21.938Z,17.46
2017-10-25T16:04:24.621Z,17.34
2017-10-25T16:09:26.708Z,17.39
2017-10-25T16:14:28.692Z,17.44
2017-10-25T16:19:30.704Z,17.31
2017-10-25T16:24:32.638Z,17.27
2017-10-25T16:29:34.576Z,17.10
2017-10-25T16:34:37.216Z,17.15
2017-10-25T16:39:39.171Z,17.27
2017-10-25T16:44:41.208Z,17.33
2017-10-25T16:49:43.219Z,17.45
2017-10-25T16:54:45.216Z,17.33
2017-10-25T16:59:47.125Z,17.30
2017-10-25T17:04:49.072Z,17.38
2017-10-25T17:09:51.034Z,17.49
2017-10-25T17:14:53.003Z,17.59
2017-10-25T17:19:54.975Z,17.61
2017-10-25T17:24:56.948Z,17.61
2017-10-25T17:29:58.924Z,17.51
2017-10-25T17:35:01.071Z,17.28
2017-10-25T17:40:03.772Z,17.20
2017-10-25T17:45:06.440Z,17.10
2017-10-25T17:50:12.929Z,16.92
2017-10-25T17:55:19.810Z,16.80
2017-10-25T18:00:24.535Z,16.94
2017-10-25T18:05:26.789Z,16.90
2017-10-25T18:10:33.105Z,16.91
2017-10-25T18:15:35.295Z,16.79
2017-10-25T18:20:38.039Z,16.80
2017-10-25T18:25:39.995Z,16.75
2017-10-25T18:30:41.948Z,16.69
2017-10-25T18:35:43.992Z,16.72
2017-10-25T18:40:45.952Z,16.60
2017-10-25T18:45:48.626Z,16.64
2017-10-25T18:50:50.602Z,16.56
2017-10-25T18:55:52.545Z,16.46
2017-10-25T19:00:54.506Z,16.35
2017-10-25T19:05:56.630Z,16.27
2017-10-25T19:10:58.571Z,16.24
2017-10-25T19:16:00.500Z,16.20
2017-10-25T19:21:04.636Z,16.14
2017-10-25T19:26:07.268Z,16.13
2017-10-25T19:31:09.909Z,16.06
2017-10-25T19:36:12.032Z,16.03
2017-10-25T19:41:14.062Z,15.98
2017-10-25T19:46:16.047Z,15.96
2017-10-25T19:51:17.992Z,15.89
2017-10-25T19:56:19.925Z,15.87
2017-10-25T20:01:21.987Z,15.79
2017-10-25T20:06:24.007Z,15.71
2017-10-25T20:11:26.141Z,15.66
2017-10-25T20:16:28.079Z,15.65
2017-10-25T20:21:30.601Z,15.58
2017-10-25T20:26:34.327Z,15.45
2017-10-25T20:31:36.419Z,15.45
2017-10-25T20:36:39.098Z,15.48
2017-10-25T20:41:41.035Z,15.37
2017-10-25T20:46:43.024Z,15.29
2017-10-25T20:51:44.980Z,15.32
2017-10-25T20:56:46.922Z,15.37
2017-10-25T21:01:48.888Z,15.38
2017-10-25T21:06:50.843Z,15.40
2017-10-25T21:11:52.750Z,15.39
2017-10-25T21:16:54.668Z,15.42
2017-10-25T21:21:57.324Z,15.37
2017-10-25T21:26:59.267Z,15.42
2017-10-25T21:32:01.202Z,15.28
2017-10-25T21:37:03.162Z,15.12
2017-10-25T21:42:05.080Z,14.92
2017-10-25T21:47:07.081Z,15.01
2017-10-25T21:52:09.024Z,15.00
2017-10-25T21:57:10.925Z,14.91
2017-10-25T22:02:12.878Z,14.89
2017-10-25T22:07:14.795Z,14.81
2017-10-25T22:12:16.808Z,14.91
2017-10-25T22:17:18.732Z,14.86
2017-10-25T22:22:21.380Z,14.81
2017-10-25T22:27:23.335Z,14.76
2017-10-25T22:32:25.245Z,14.80
2017-10-25T22:37:27.154Z,14.86
2017-10-25T22:42:29.811Z,14.98
2017-10-25T22:47:31.803Z,14.93
2017-10-25T22:52:33.757Z,14.92
2017-10-25T22:57:35.722Z,14.79
2017-10-25T23:02:37.665Z,14.91
2017-10-25T23:07:39.659Z,14.83
2017-10-25T23:12:41.573Z,14.80
2017-10-25T23:17:43.556Z,14.71
2017-10-25T23:22:45.491Z,14.74
2017-10-25T23:27:47.413Z,14.66
2017-10-25T23:32:50.131Z,14.76
2017-10-25T23:37:52.821Z,14.75
2017-10-25T23:42:54.744Z,14.61
2017-10-25T23:47:56.704Z,14.44
2017-10-25T23:52:58.670Z,14.42
2017-10-25T23:58:01.389Z,14.49
